Time,TemperatureF,DewpointF,PressureIn,WindDirection,WindDirectionDegrees,WindSpeedMPH,WindSpeedGustMPH,Humidity,HourlyPrecipIn,Conditions,Clouds,dailyrainin,SoftwareType,DateUTC
2015-04-02 00:00:00,44.7,41.4,29.97,SW,225,8.0,12.0,88,0.00,SCT,,0.00,WeatherDisplay:10.37,2015-04-01 23:00:00,
2015-04-02 00:10:00,45.0,41.3,29.97,SW,220,2.0,13.0,87,0.00,SCT,,0.00,WeatherDisplay:10.37,2015-04-01 23:10:00,
2015-04-02 00:18:00,45.1,41.8,29.97,SW,236,5.0,9.0,88,0.00,SCT,,0.00,WeatherDisplay:10.37,2015-04-01 23:18:00,
2015-04-02 00:30:00,45.3,42.0,29.94,SW,229,5.0,14.0,88,0.00,SCT,,0.00,WeatherDisplay:10.37,2015-04-01 23:30:00,
2015-04-02 00:40:00,45.5,42.4,29.94,WSW,251,10.0,12.0,89,0.00,SCT,,0.00,WeatherDisplay:10.37,2015-04-01 23:40:00,
2015-04-02 00:50:00,45.5,42.2,29.94,SW,225,9.0,12.0,88,0.00,SCT,,0.00,WeatherDisplay:10.37,2015-04-01 23:50:00,
2015-04-02 01:00:00,45.9,42.8,29.94,SW,222,6.0,13.0,89,0.00,SCT,,0.00,WeatherDisplay:10.37,2015-04-02 00:00:00,
2015-04-02 01:10:00,46.2,42.9,29.94,WSW,245,13.0,15.0,88,0.00,SCT,,0.00,WeatherDisplay:10.37,2015-04-02 00:10:00,
2015-04-02 01:20:00,46.2,43.2,29.94,WSW,243,6.0,9.0,89,0.00,SCT,,0.00,WeatherDisplay:10.37,2015-04-02 00:20:00,
2015-04-02 01:30:00,46.3,43.0,29.94,WSW,241,8.0,9.0,88,0.00,SCT,,0.00,WeatherDisplay:10.37,2015-04-02 00:30:00,
2015-04-02 01:40:00,46.4,43.3,29.94,SW,229,10.0,15.0,89,0.00,SCT,,0.00,WeatherDisplay:10.37,2015-04-02 00:40:00,
2015-04-02 01:50:00,46.6,43.5,29.94,WSW,250,8.0,9.0,89,0.00,SCT,,0.00,WeatherDisplay:10.37,2015-04-02 00:50:00,
2015-04-02 02:00:00,45.6,42.9,29.94,NNW,331,3.0,6.0,90,0.06,RA,,0.06,WeatherDisplay:10.37,2015-04-02 01:00:00,
2015-04-02 02:10:00,44.6,41.8,29.94,NNE,16,5.0,7.0,90,0.00,SCT,,0.06,WeatherDisplay:10.37,2015-04-02 01:10:00,
2015-04-02 02:20:00,44.1,41.3,29.94,North,10,2.0,6.0,90,0.00,SCT,,0.06,WeatherDisplay:10.37,2015-04-02 01:20:00,
2015-04-02 02:30:00,43.7,41.0,29.94,NNW,328,2.0,6.0,90,0.00,SCT,,0.06,WeatherDisplay:10.37,2015-04-02 01:30:00,
2015-04-02 02:40:00,43.5,40.8,29.94,NW,324,5.0,6.0,90,0.00,SCT,,0.06,WeatherDisplay:10.37,2015-04-02 01:40:00,
2015-04-02 02:50:00,43.3,40.6,29.94,NW,305,1.0,5.0,90,0.00,SCT,,0.06,WeatherDisplay:10.37,2015-04-02 01:50:00,
2015-04-02 03:00:00,43.5,41.1,29.94,NW,314,2.0,5.0,91,0.00,SCT,,0.06,WeatherDisplay:10.37,2015-04-02 02:00:00,
2015-04-02 03:10:00,43.5,40.8,29.95,North,5,5.0,5.0,90,0.00,SCT,,0.06,WeatherDisplay:10.37,2015-04-02 02:10:00,
2015-04-02 03:20:00,43.3,40.6,29.97,North,356,2.0,5.0,90,0.00,SCT,,0.06,WeatherDisplay:10.37,2015-04-02 02:20:00,
2015-04-02 03:30:00,43.3,40.6,29.97,West,262,3.0,7.0,90,0.00,SCT,,0.06,WeatherDisplay:10.37,2015-04-02 02:30:00,
2015-04-02 03:40:00,43.3,40.6,29.97,NW,322,2.0,8.0,90,0.00,SCT,,0.06,WeatherDisplay:10.37,2015-04-02 02:40:00,
2015-04-02 03:50:00,43.2,40.4,29.97,WNW,301,1.0,6.0,90,0.00,SCT,,0.06,WeatherDisplay:10.37,2015-04-02 02:50:00,
2015-04-02 04:00:00,43.2,40.4,29.97,NW,325,2.0,6.0,90,0.06,RA,,0.12,WeatherDisplay:10.37,2015-04-02 03:00:00,
2015-04-02 04:10:00,43.0,40.2,29.97,NNE,20,2.0,7.0,90,0.00,SCT,,0.12,WeatherDisplay:10.37,2015-04-02 03:10:00,
2015-04-02 04:20:00,43.0,40.2,29.97,NW,312,3.0,9.0,90,0.00,SCT,,0.12,WeatherDisplay:10.37,2015-04-02 03:20:00,
2015-04-02 04:30:00,42.8,40.1,30.00,SSE,150,3.0,7.0,90,0.00,SCT,,0.12,WeatherDisplay:10.37,2015-04-02 03:30:00,
2015-04-02 04:40:00,42.4,39.7,30.00,NW,314,6.0,10.0,90,0.00,SCT,,0.12,WeatherDisplay:10.37,2015-04-02 03:40:00,
2015-04-02 04:50:00,42.3,39.5,30.00,WNW,296,3.0,7.0,90,0.00,SCT,,0.12,WeatherDisplay:10.37,2015-04-02 03:50:00,
2015-04-02 05:00:00,42.3,39.5,30.00,WNW,287,2.0,4.0,90,0.00,SCT,,0.12,WeatherDisplay:10.37,2015-04-02 04:00:00,
2015-04-02 05:10:00,42.3,39.5,30.00,West,264,5.0,6.0,90,0.00,SCT,,0.12,WeatherDisplay:10.37,2015-04-02 04:10:00,
2015-04-02 05:20:00,42.1,39.4,30.00,WNW,285,3.0,12.0,90,0.00,SCT,,0.12,WeatherDisplay:10.37,2015-04-02 04:20:00,
2015-04-02 05:30:00,41.9,39.2,30.00,SW,231,2.0,12.0,90,0.00,SCT,,0.12,WeatherDisplay:10.37,2015-04-02 04:30:00,
2015-04-02 05:40:00,41.7,38.4,30.00,WNW,293,2.0,6.0,88,0.00,SCT,,0.12,WeatherDisplay:10.37,2015-04-02 04:40:00,
2015-04-02 05:50:00,41.7,38.4,30.00,NW,326,3.0,4.0,88,0.00,SCT,,0.12,WeatherDisplay:10.37,2015-04-02 04:50:00,
2015-04-02 06:00:00,41.7,38.1,30.03,West,267,2.0,5.0,87,0.00,SCT,,0.12,WeatherDisplay:10.37,2015-04-02 05:00:00,
2015-04-02 06:10:00,41.5,38.0,30.03,West,275,2.0,5.0,87,0.00,SCT,,0.12,WeatherDisplay:10.37,2015-04-02 05:10:00,
2015-04-02 06:20:00,41.5,38.0,30.03,West,271,1.0,4.0,87,0.00,SCT,,0.12,WeatherDisplay:10.37,2015-04-02 05:20:00,
2015-04-02 06:30:00,41.5,38.0,30.03,WNW,300,1.0,5.0,87,0.00,SCT,,0.12,WeatherDisplay:10.37,2015-04-02 05:30:00,
2015-04-02 06:40:00,41.4,37.5,30.06,West,269,2.0,6.0,86,0.00,SCT,,0.12,WeatherDisplay:10.37,2015-04-02 05:40:00,
2015-04-02 06:50:00,41.4,37.8,30.06,NW,306,1.0,6.0,87,0.00,SCT,,0.12,WeatherDisplay:10.37,2015-04-02 05:50:00,
2015-04-02 07:00:00,41.4,38.1,30.06,NW,305,2.0,5.0,88,0.00,SCT,,0.12,WeatherDisplay:10.37,2015-04-02 06:00:00,
2015-04-02 07:10:00,41.4,37.8,30.06,NW,321,0.0,5.0,87,0.00,SCT,,0.12,WeatherDisplay:10.37,2015-04-02 06:10:00,
2015-04-02 07:20:00,41.4,37.8,30.06,WNW,297,3.0,4.0,87,0.00,SCT,,0.12,WeatherDisplay:10.37,2015-04-02 06:20:00,
2015-04-02 07:30:00,41.4,37.8,30.06,WSW,243,6.0,7.0,87,0.00,SCT,,0.12,WeatherDisplay:10.37,2015-04-02 06:30:00,
2015-04-02 07:40:00,41.4,37.8,30.06,NW,324,2.0,3.0,87,0.00,SCT,,0.12,WeatherDisplay:10.37,2015-04-02 06:40:00,
2015-04-02 07:50:00,41.4,37.5,30.06,WNW,292,1.0,5.0,86,0.00,SCT,,0.12,WeatherDisplay:10.37,2015-04-02 06:50:00,
2015-04-02 08:00:00,41.4,37.8,30.09,North,350,3.0,6.0,87,0.00,SCT,,0.12,WeatherDisplay:10.37,2015-04-02 07:00:00,